createdAt,value
2024-01-04T00:01:24.196Z,0.48
2024-01-04T00:03:51.011Z,0.43
2024-01-04T00:06:18.734Z,0.54
2024-01-04T00:08:45.692Z,0.15
2024-01-04T00:11:12.498Z,0.08
2024-01-04T00:13:40.205Z,0.05
2024-01-04T00:16:13.119Z,0.09
2024-01-04T00:18:40.106Z,0.20
2024-01-04T00:21:07.298Z,0.23
2024-01-04T00:23:36.071Z,0.39
2024-01-04T00:26:03.069Z,0.32
2024-01-04T00:28:30.415Z,0.29
2024-01-04T00:30:57.147Z,0.21
2024-01-04T00:33:24.437Z,0.17
2024-01-04T00:35:51.296Z,0.25
2024-01-04T00:38:18.028Z,0.19
2024-01-04T00:40:45.902Z,0.25
2024-01-04T00:43:12.710Z,0.15
2024-01-04T00:45:39.425Z,0.06
2024-01-04T00:48:06.835Z,-0.02
2024-01-04T00:50:33.731Z,-0.05
2024-01-04T00:53:09.119Z,-0.03
2024-01-04T00:55:37.051Z,-0.13
2024-01-04T00:58:05.230Z,-0.09
2024-01-04T01:00:32.616Z,-0.08
2024-01-04T01:03:00.453Z,-0.09
2024-01-04T01:05:27.342Z,-0.24
2024-01-04T01:07:54.124Z,-0.45
2024-01-04T01:10:20.953Z,-0.40
2024-01-04T01:12:47.728Z,-0.38
2024-01-04T01:15:14.689Z,-0.41
2024-01-04T01:17:41.788Z,-0.42
2024-01-04T01:20:09.386Z,-0.52
2024-01-04T01:22:36.097Z,-0.35
2024-01-04T01:25:02.843Z,-0.33
2024-01-04T01:27:29.973Z,-0.30
2024-01-04T01:29:56.725Z,-0.29
2024-01-04T01:32:23.471Z,-0.35
2024-01-04T01:34:50.223Z,-0.33
2024-01-04T01:37:17.385Z,-0.44
2024-01-04T01:39:44.093Z,-0.39
2024-01-04T01:42:10.830Z,-0.32
2024-01-04T01:44:37.558Z,-0.51
2024-01-04T01:47:04.535Z,-0.30
2024-01-04T01:49:31.755Z,-0.34
2024-01-04T01:51:59.384Z,-0.37
2024-01-04T01:54:26.463Z,-0.39
2024-01-04T01:56:53.391Z,-0.35
2024-01-04T01:59:27.162Z,-0.32
2024-01-04T02:01:54.903Z,-0.67
2024-01-04T02:04:22.247Z,-0.48
2024-01-04T02:06:49.159Z,-0.47
2024-01-04T02:09:16.574Z,-0.48
2024-01-04T02:11:45.744Z,-0.43
2024-01-04T02:14:12.628Z,-0.43
2024-01-04T02:16:39.386Z,-0.44
2024-01-04T02:19:12.740Z,-0.47
2024-01-04T02:21:39.767Z,-0.41
2024-01-04T02:24:07.263Z,-0.76
2024-01-04T02:26:34.241Z,-1.08
2024-01-04T02:29:01.140Z,-0.87
2024-01-04T02:31:27.891Z,-0.80
2024-01-04T02:33:55.121Z,-0.77
2024-01-04T02:36:22.123Z,-0.83
2024-01-04T02:38:48.892Z,-0.73
2024-01-04T02:41:15.644Z,-0.71
2024-01-04T02:43:42.356Z,-0.69
2024-01-04T02:46:09.077Z,-0.88
2024-01-04T02:48:36.142Z,-0.80
2024-01-04T02:51:03.152Z,-0.72
2024-01-04T02:53:30.122Z,-0.81
2024-01-04T02:55:57.077Z,-0.91
2024-01-04T02:58:23.784Z,-0.87
2024-01-04T03:00:50.929Z,-0.99
2024-01-04T03:03:17.795Z,-1.34
2024-01-04T03:05:45.172Z,-1.43
2024-01-04T03:08:11.974Z,-1.42
2024-01-04T03:10:38.686Z,-1.37
2024-01-04T03:13:05.506Z,-1.31
2024-01-04T03:15:32.710Z,-1.24
2024-01-04T03:17:59.808Z,-1.09
2024-01-04T03:20:26.667Z,-1.43
2024-01-04T03:22:53.467Z,-1.23
2024-01-04T03:25:21.133Z,-1.20
2024-01-04T03:27:47.825Z,-1.14
2024-01-04T03:30:14.772Z,-1.11
2024-01-04T03:32:42.734Z,-1.22
2024-01-04T03:35:09.930Z,-1.19
2024-01-04T03:37:36.633Z,-1.43
2024-01-04T03:40:03.675Z,-1.55
2024-01-04T03:42:30.359Z,-1.34
2024-01-04T03:44:57.161Z,-1.36
2024-01-04T03:47:25.298Z,-1.25
2024-01-04T03:49:52.039Z,-1.28
2024-01-04T03:52:18.785Z,-1.15
2024-01-04T03:54:46.614Z,-1.09
2024-01-04T03:57:13.438Z,-1.09
2024-01-04T03:59:40.320Z,-0.98
2024-01-04T04:02:08.651Z,-1.07
2024-01-04T04:04:35.413Z,-1.22
2024-01-04T04:07:02.662Z,-1.32
2024-01-04T04:09:29.429Z,-1.23
2024-01-04T04:11:56.801Z,-1.35
2024-01-04T04:14:23.567Z,-1.28
2024-01-04T04:16:50.541Z,-1.10
2024-01-04T04:19:17.340Z,-1.16
2024-01-04T04:21:44.188Z,-1.05
2024-01-04T04:24:10.964Z,-1.24
2024-01-04T04:26:37.793Z,-1.26
2024-01-04T04:29:04.629Z,-1.27
2024-01-04T04:31:31.353Z,-1.15
2024-01-04T04:33:58.172Z,-1.23
2024-01-04T04:36:24.969Z,-1.22
2024-01-04T04:38:51.757Z,-1.13
2024-01-04T04:41:18.629Z,-1.19
2024-01-04T04:43:45.442Z,-1.29
2024-01-04T04:46:13.509Z,-1.45
2024-01-04T04:48:40.920Z,-1.23
2024-01-04T04:51:07.917Z,-1.28
2024-01-04T04:53:34.699Z,-1.14
2024-01-04T04:56:01.881Z,-1.15
2024-01-04T04:58:33.064Z,-1.22
2024-01-04T05:01:00.353Z,-1.21
2024-01-04T05:03:27.220Z,-1.40
2024-01-04T05:05:54.638Z,-1.70
2024-01-04T05:08:21.423Z,-1.53
2024-01-04T05:10:48.157Z,-1.56
2024-01-04T05:13:16.581Z,-1.42
2024-01-04T05:15:44.561Z,-1.57
2024-01-04T05:18:12.045Z,-1.51
2024-01-04T05:20:39.015Z,-1.70
2024-01-04T05:23:06.282Z,-1.55
2024-01-04T05:25:33.029Z,-1.61
2024-01-04T05:28:00.256Z,-1.49
2024-01-04T05:30:27.262Z,-1.49
2024-01-04T05:32:54.219Z,-1.49
2024-01-04T05:35:21.593Z,-1.39
2024-01-04T05:37:48.782Z,-1.34
2024-01-04T05:40:15.930Z,-1.36
2024-01-04T05:42:43.825Z,-1.60
2024-01-04T05:45:10.845Z,-1.52
2024-01-04T05:47:38.545Z,-1.66
2024-01-04T05:50:06.307Z,-1.51
2024-01-04T05:52:33.020Z,-1.53
2024-01-04T05:55:00.842Z,-1.64
2024-01-04T05:57:29.184Z,-1.55
2024-01-04T05:59:56.056Z,-1.46
2024-01-04T06:02:23.682Z,-1.34
2024-01-04T06:04:50.450Z,-1.32
2024-01-04T06:07:17.377Z,-1.18
2024-01-04T06:09:44.115Z,-1.29
2024-01-04T06:12:10.968Z,-1.25
2024-01-04T06:14:38.109Z,-1.30
2024-01-04T06:17:04.926Z,-1.25
2024-01-04T06:19:32.469Z,-1.10
2024-01-04T06:21:59.325Z,-1.10
2024-01-04T06:24:26.183Z,-1.10
2024-01-04T06:26:53.564Z,-0.98
2024-01-04T06:29:20.495Z,-1.02
2024-01-04T06:31:47.277Z,-0.98
2024-01-04T06:34:14.259Z,-0.93
2024-01-04T06:36:41.152Z,-1.03
2024-01-04T06:39:09.371Z,-0.97
2024-01-04T06:41:37.328Z,-0.90
2024-01-04T06:44:04.828Z,-0.91
2024-01-04T06:46:31.518Z,-0.90
2024-01-04T06:48:58.525Z,-0.71
2024-01-04T06:51:26.291Z,-0.33
2024-01-04T06:53:53.230Z,0.01
2024-01-04T06:56:20.887Z,1.00
2024-01-04T06:58:47.687Z,2.17
2024-01-04T07:01:14.428Z,3.25
2024-01-04T07:03:41.842Z,4.06
2024-01-04T07:06:09.183Z,5.02
2024-01-04T07:08:35.941Z,5.87
2024-01-04T07:11:08.883Z,6.66
2024-01-04T07:13:35.697Z,7.97
2024-01-04T07:16:06.079Z,7.65
2024-01-04T07:18:33.607Z,8.31
2024-01-04T07:21:00.884Z,8.81
2024-01-04T07:23:27.636Z,9.86
2024-01-04T07:25:55.784Z,10.61
2024-01-04T07:28:22.478Z,11.09
2024-01-04T07:30:50.106Z,11.63
2024-01-04T07:33:17.063Z,11.09
2024-01-04T07:35:44.020Z,12.12
2024-01-04T07:38:10.785Z,10.37
2024-01-04T07:40:37.785Z,11.47
2024-01-04T07:43:04.721Z,12.41
2024-01-04T07:45:31.630Z,12.91
2024-01-04T07:47:58.566Z,13.12
2024-01-04T07:50:25.441Z,13.63
2024-01-04T07:52:52.250Z,13.47
2024-01-04T07:55:21.770Z,14.19
2024-01-04T07:57:48.533Z,13.67
2024-01-04T08:00:15.754Z,11.18
2024-01-04T08:02:42.575Z,10.62
2024-01-04T08:05:12.242Z,10.50
2024-01-04T08:07:39.023Z,10.80
2024-01-04T08:10:06.464Z,11.40
2024-01-04T08:12:33.217Z,11.18
2024-01-04T08:14:59.965Z,11.57
2024-01-04T08:17:26.848Z,12.43
2024-01-04T08:19:53.751Z,12.48
2024-01-04T08:22:20.752Z,12.43
2024-01-04T08:24:47.473Z,13.05
2024-01-04T08:27:14.188Z,11.50
2024-01-04T08:29:41.297Z,11.13
2024-01-04T08:32:10.054Z,13.23
2024-01-04T08:34:36.781Z,13.28
2024-01-04T08:37:03.555Z,12.53
2024-01-04T08:39:31.474Z,13.56
2024-01-04T08:41:58.221Z,13.68
2024-01-04T08:44:25.120Z,15.00
2024-01-04T08:46:51.836Z,13.75
2024-01-04T08:49:19.106Z,14.40
2024-01-04T08:51:46.318Z,13.59
2024-01-04T08:54:13.273Z,11.97
2024-01-04T08:56:43.492Z,11.33
2024-01-04T08:59:10.224Z,11.71
2024-01-04T09:01:36.989Z,10.49
2024-01-04T09:04:03.915Z,11.27
2024-01-04T09:06:32.808Z,11.45
2024-01-04T09:09:01.074Z,11.08
2024-01-04T09:11:29.538Z,10.81
2024-01-04T09:13:56.335Z,11.21
2024-01-04T09:16:24.146Z,11.14
2024-01-04T09:18:51.028Z,12.20
2024-01-04T09:21:17.942Z,13.15
2024-01-04T09:23:46.230Z,14.27
2024-01-04T09:26:13.106Z,15.12
2024-01-04T09:28:39.856Z,14.08
2024-01-04T09:31:08.184Z,13.37
2024-01-04T09:33:37.245Z,13.12
2024-01-04T09:36:04.911Z,13.79
2024-01-04T09:38:33.769Z,13.35
2024-01-04T09:41:13.656Z,13.46
2024-01-04T09:43:42.357Z,13.89
2024-01-04T09:46:14.264Z,13.34
2024-01-04T09:48:49.497Z,13.14
2024-01-04T09:51:18.007Z,11.90
2024-01-04T09:53:44.731Z,11.07
2024-01-04T09:56:15.607Z,11.54
2024-01-04T09:58:42.333Z,11.44
2024-01-04T10:01:11.262Z,11.54
2024-01-04T10:03:43.507Z,10.49
2024-01-04T10:06:12.748Z,10.36
2024-01-04T10:08:45.740Z,10.77
2024-01-04T10:11:22.693Z,10.84
2024-01-04T10:13:50.499Z,10.48
2024-01-04T10:16:18.355Z,10.47
2024-01-04T10:18:45.602Z,11.04
2024-01-04T10:21:12.836Z,11.34
2024-01-04T10:23:39.574Z,11.88
2024-01-04T10:26:08.632Z,12.11
2024-01-04T10:28:40.651Z,12.18
2024-01-04T10:31:12.655Z,12.20
2024-01-04T10:33:41.926Z,12.75
2024-01-04T10:36:10.584Z,12.90
2024-01-04T10:38:38.135Z,13.21
2024-01-04T10:41:05.762Z,13.25
2024-01-04T10:43:34.401Z,13.04
2024-01-04T10:46:09.609Z,12.64
2024-01-04T10:48:39.684Z,12.79
2024-01-04T10:51:10.924Z,12.78
2024-01-04T10:53:39.194Z,13.12
2024-01-04T10:56:06.868Z,13.63
2024-01-04T10:58:43.742Z,13.89
2024-01-04T11:01:11.077Z,14.59
2024-01-04T11:03:39.210Z,13.83
2024-01-04T11:06:06.407Z,13.21
2024-01-04T11:08:35.276Z,12.54
2024-01-04T11:11:05.221Z,12.86
2024-01-04T11:13:32.064Z,13.67
2024-01-04T11:16:03.225Z,13.48
2024-01-04T11:18:41.875Z,12.74
2024-01-04T11:21:21.010Z,12.43
2024-01-04T11:24:04.592Z,12.82
2024-01-04T11:26:53.074Z,13.21
2024-01-04T11:29:21.042Z,12.53
2024-01-04T11:31:49.811Z,12.61
2024-01-04T11:34:17.727Z,12.23
2024-01-04T11:36:44.725Z,13.05
2024-01-04T11:39:12.004Z,13.40
2024-01-04T11:41:39.152Z,12.83
2024-01-04T11:44:17.016Z,13.10
2024-01-04T11:46:44.539Z,12.87
2024-01-04T11:49:15.830Z,11.93
2024-01-04T11:51:50.692Z,11.50
2024-01-04T11:54:22.362Z,11.57
2024-01-04T11:56:49.682Z,11.19
2024-01-04T11:59:23.025Z,10.75
2024-01-04T12:01:51.114Z,10.85
2024-01-04T12:04:18.809Z,10.40
2024-01-04T12:06:49.626Z,10.36
2024-01-04T12:09:18.516Z,10.05
2024-01-04T12:11:58.078Z,9.80
2024-01-04T12:14:27.343Z,9.68
2024-01-04T12:16:54.208Z,9.62
2024-01-04T12:19:21.166Z,9.59
2024-01-04T12:21:48.304Z,9.59
2024-01-04T12:24:15.722Z,9.62
2024-01-04T12:26:43.057Z,9.58
2024-01-04T12:29:10.142Z,9.51
2024-01-04T12:31:37.356Z,9.46
2024-01-04T12:34:04.432Z,9.52
2024-01-04T12:36:32.316Z,9.54
2024-01-04T12:39:10.811Z,9.72
2024-01-04T12:41:43.119Z,9.58
2024-01-04T12:44:09.848Z,9.49
2024-01-04T12:46:37.106Z,9.82
2024-01-04T12:49:08.890Z,9.88
2024-01-04T12:51:39.856Z,10.81
2024-01-04T12:54:07.293Z,11.19
2024-01-04T12:56:35.550Z,11.94
2024-01-04T12:59:04.565Z,12.24
2024-01-04T13:01:32.370Z,12.91
2024-01-04T13:04:00.537Z,12.87
2024-01-04T13:06:29.026Z,12.85
2024-01-04T13:08:56.288Z,12.70
2024-01-04T13:11:23.942Z,12.67
2024-01-04T13:13:51.792Z,12.12
2024-01-04T13:16:18.680Z,12.50
2024-01-04T13:18:46.056Z,12.65
2024-01-04T13:21:13.111Z,12.10
2024-01-04T13:23:41.636Z,12.36
2024-01-04T13:26:09.926Z,12.42
2024-01-04T13:28:38.152Z,12.48
2024-01-04T13:31:05.361Z,12.21
2024-01-04T13:33:32.498Z,12.16
2024-01-04T13:36:00.643Z,12.44
2024-01-04T13:38:28.268Z,12.86
2024-01-04T13:40:57.047Z,12.79
2024-01-04T13:43:24.510Z,12.45
2024-01-04T13:45:55.358Z,12.08
2024-01-04T13:48:22.620Z,11.85
2024-01-04T13:50:49.724Z,12.11
2024-01-04T13:53:17.195Z,11.79
2024-01-04T13:55:43.896Z,11.52
2024-01-04T13:58:11.146Z,11.54
2024-01-04T14:00:38.468Z,11.98
2024-01-04T14:03:05.558Z,11.89
2024-01-04T14:05:36.201Z,11.90
2024-01-04T14:08:05.371Z,12.05
2024-01-04T14:10:32.865Z,11.58
2024-01-04T14:12:59.571Z,11.10
2024-01-04T14:15:26.606Z,11.01
2024-01-04T14:17:55.434Z,10.57
2024-01-04T14:20:25.157Z,9.92
2024-01-04T14:22:53.326Z,9.77
2024-01-04T14:25:22.168Z,9.62
2024-01-04T14:27:49.578Z,9.48
2024-01-04T14:30:16.792Z,9.23
2024-01-04T14:32:43.939Z,9.18
2024-01-04T14:35:12.113Z,9.05
2024-01-04T14:37:39.962Z,8.99
2024-01-04T14:40:08.518Z,8.92
2024-01-04T14:42:35.747Z,8.82
2024-01-04T14:45:02.677Z,8.82
2024-01-04T14:47:29.609Z,8.72
2024-01-04T14:49:56.564Z,8.69
2024-01-04T14:52:25.438Z,8.62
2024-01-04T14:54:53.516Z,8.55
2024-01-04T14:57:20.844Z,8.53
2024-01-04T14:59:47.825Z,8.54
2024-01-04T15:02:14.709Z,8.45
2024-01-04T15:04:41.443Z,8.43
2024-01-04T15:07:09.549Z,8.29
2024-01-04T15:09:37.330Z,8.23
2024-01-04T15:12:04.551Z,8.14
2024-01-04T15:14:32.115Z,8.07
2024-01-04T15:17:00.861Z,8.07
2024-01-04T15:19:30.013Z,8.12
2024-01-04T15:21:56.823Z,7.94
2024-01-04T15:24:27.428Z,7.85
2024-01-04T15:26:54.445Z,7.68
2024-01-04T15:29:21.445Z,7.77
2024-01-04T15:31:48.992Z,7.78
2024-01-04T15:34:15.760Z,7.79
2024-01-04T15:36:42.616Z,7.74
2024-01-04T15:39:09.561Z,7.71
2024-01-04T15:41:37.592Z,7.66
2024-01-04T15:44:05.064Z,7.53
2024-01-04T15:46:31.769Z,7.47
2024-01-04T15:49:01.296Z,7.46
2024-01-04T15:51:28.481Z,7.35
2024-01-04T15:53:58.118Z,7.18
2024-01-04T15:56:27.956Z,7.05
2024-01-04T15:58:57.640Z,7.00
2024-01-04T16:01:28.692Z,6.92
2024-01-04T16:03:55.920Z,6.81
2024-01-04T16:06:24.153Z,6.99
2024-01-04T16:08:51.341Z,7.15
2024-01-04T16:11:18.183Z,7.40
2024-01-04T16:13:47.212Z,7.60
2024-01-04T16:16:13.970Z,7.60
2024-01-04T16:18:40.830Z,7.58
2024-01-04T16:21:13.757Z,7.59
2024-01-04T16:23:41.138Z,7.59
2024-01-04T16:26:18.081Z,7.66
2024-01-04T16:28:46.003Z,7.68
2024-01-04T16:31:12.781Z,7.60
2024-01-04T16:33:39.644Z,7.38
2024-01-04T16:36:12.697Z,7.34
2024-01-04T16:38:40.834Z,7.18
2024-01-04T16:41:12.082Z,7.07
2024-01-04T16:43:40.533Z,7.04
2024-01-04T16:46:08.501Z,6.87
2024-01-04T16:48:35.776Z,6.81
2024-01-04T16:51:02.738Z,6.81
2024-01-04T16:53:30.718Z,6.69
2024-01-04T16:55:57.428Z,6.75
2024-01-04T16:58:24.278Z,6.61
2024-01-04T17:00:52.623Z,6.55
2024-01-04T17:03:19.411Z,6.54
2024-01-04T17:05:50.040Z,6.49
2024-01-04T17:08:17.439Z,6.46
2024-01-04T17:10:44.207Z,6.47
2024-01-04T17:13:12.618Z,6.30
2024-01-04T17:15:39.355Z,6.21
2024-01-04T17:18:08.522Z,6.18
2024-01-04T17:20:35.407Z,6.11
2024-01-04T17:23:03.177Z,6.06
2024-01-04T17:25:29.885Z,6.08
2024-01-04T17:27:56.562Z,6.19
2024-01-04T17:30:25.076Z,6.26
2024-01-04T17:32:54.412Z,6.33
2024-01-04T17:35:21.538Z,6.20
2024-01-04T17:37:48.828Z,5.98
2024-01-04T17:40:15.880Z,5.75
2024-01-04T17:42:42.700Z,5.57
2024-01-04T17:45:13.881Z,5.55
2024-01-04T17:47:46.073Z,5.37
2024-01-04T17:50:15.757Z,5.14
2024-01-04T17:52:42.468Z,5.01
2024-01-04T17:55:11.530Z,4.96
2024-01-04T17:57:38.326Z,4.86
2024-01-04T18:00:05.760Z,4.93
2024-01-04T18:02:32.518Z,4.95
2024-01-04T18:04:59.366Z,4.90
2024-01-04T18:07:26.154Z,4.94
2024-01-04T18:09:52.902Z,4.79
2024-01-04T18:12:20.634Z,4.79
2024-01-04T18:14:47.532Z,4.94
2024-01-04T18:17:16.730Z,4.69
2024-01-04T18:19:45.992Z,4.87
2024-01-04T18:22:12.737Z,4.81
2024-01-04T18:24:42.514Z,4.86
2024-01-04T18:27:10.371Z,4.96
2024-01-04T18:29:38.569Z,4.78
2024-01-04T18:32:06.054Z,4.73
2024-01-04T18:34:32.985Z,4.50
2024-01-04T18:36:59.846Z,4.52
2024-01-04T18:39:26.735Z,4.51
2024-01-04T18:41:55.040Z,4.72
2024-01-04T18:44:21.792Z,4.78
2024-01-04T18:46:54.004Z,4.83
2024-01-04T18:49:25.300Z,4.82
2024-01-04T18:51:54.947Z,4.69
2024-01-04T18:54:21.684Z,4.72
2024-01-04T18:56:48.449Z,4.57
2024-01-04T18:59:18.952Z,4.55
2024-01-04T19:01:46.141Z,4.36
2024-01-04T19:04:12.886Z,4.37
2024-01-04T19:06:39.736Z,4.42
2024-01-04T19:09:06.628Z,4.40
2024-01-04T19:11:34.064Z,4.45
2024-01-04T19:14:02.341Z,4.40
2024-01-04T19:16:29.023Z,4.32
2024-01-04T19:18:57.492Z,4.46
2024-01-04T19:21:26.817Z,4.57
2024-01-04T19:23:53.656Z,4.46
2024-01-04T19:26:22.209Z,4.19
2024-01-04T19:28:48.886Z,4.21
2024-01-04T19:31:16.454Z,4.24
2024-01-04T19:33:43.353Z,4.33
2024-01-04T19:36:10.520Z,4.24
2024-01-04T19:38:37.629Z,4.08
2024-01-04T19:41:04.624Z,4.12
2024-01-04T19:43:32.380Z,4.04
2024-01-04T19:46:06.564Z,3.91
2024-01-04T19:48:37.410Z,3.81
2024-01-04T19:51:05.957Z,3.79
2024-01-04T19:53:32.931Z,3.75
2024-01-04T19:56:01.707Z,3.68
2024-01-04T19:58:30.733Z,3.61
2024-01-04T20:00:58.470Z,3.57
2024-01-04T20:03:25.388Z,3.67
2024-01-04T20:05:53.374Z,3.52
2024-01-04T20:08:20.154Z,3.53
2024-01-04T20:10:46.822Z,3.54
2024-01-04T20:13:14.058Z,3.51
2024-01-04T20:15:42.146Z,2.98
2024-01-04T20:18:12.532Z,3.04
2024-01-04T20:20:39.279Z,2.91
2024-01-04T20:23:06.324Z,2.82
2024-01-04T20:25:34.624Z,2.80
2024-01-04T20:28:01.439Z,2.90
2024-01-04T20:30:28.689Z,2.63
2024-01-04T20:32:55.491Z,2.77
2024-01-04T20:35:24.699Z,2.49
2024-01-04T20:37:51.859Z,2.61
2024-01-04T20:40:19.209Z,2.56
2024-01-04T20:42:48.018Z,2.66
2024-01-04T20:45:15.864Z,2.58
2024-01-04T20:47:45.172Z,2.70
2024-01-04T20:50:12.160Z,2.54
2024-01-04T20:52:38.868Z,2.65
2024-01-04T20:55:07.280Z,2.41
2024-01-04T20:57:34.734Z,2.64
2024-01-04T21:00:01.711Z,2.63
2024-01-04T21:02:28.430Z,2.70
2024-01-04T21:04:56.246Z,2.55
2024-01-04T21:07:22.943Z,2.59
2024-01-04T21:09:49.658Z,2.45
2024-01-04T21:12:16.943Z,2.31
2024-01-04T21:14:46.294Z,2.17
2024-01-04T21:17:13.155Z,2.38
2024-01-04T21:19:40.253Z,2.31
2024-01-04T21:22:07.208Z,2.10
2024-01-04T21:24:34.008Z,2.11
2024-01-04T21:27:00.831Z,2.22
2024-01-04T21:29:27.573Z,2.18
2024-01-04T21:31:54.296Z,2.22
2024-01-04T21:34:21.119Z,2.15
2024-01-04T21:36:48.182Z,2.00
2024-01-04T21:39:19.482Z,2.02
2024-01-04T21:41:46.460Z,2.06
2024-01-04T21:44:13.344Z,2.03
2024-01-04T21:46:41.531Z,1.94
2024-01-04T21:49:08.419Z,1.63
2024-01-04T21:51:35.289Z,1.69
2024-01-04T21:54:04.467Z,1.84
2024-01-04T21:56:31.466Z,1.83
2024-01-04T21:58:58.225Z,1.53
2024-01-04T22:01:26.348Z,1.54
2024-01-04T22:03:54.415Z,1.43
2024-01-04T22:06:22.786Z,1.58
2024-01-04T22:08:49.898Z,1.57
2024-01-04T22:11:17.808Z,1.36
2024-01-04T22:13:45.041Z,1.54
2024-01-04T22:16:11.768Z,1.53
2024-01-04T22:18:38.642Z,1.50
2024-01-04T22:21:05.543Z,1.54
2024-01-04T22:23:32.373Z,1.50
2024-01-04T22:25:59.072Z,1.33
2024-01-04T22:28:26.001Z,1.34
2024-01-04T22:30:54.141Z,1.36
2024-01-04T22:33:21.077Z,1.37
2024-01-04T22:35:49.818Z,1.39
2024-01-04T22:38:16.844Z,1.39
2024-01-04T22:40:43.619Z,1.30
2024-01-04T22:43:10.382Z,1.21
2024-01-04T22:45:38.469Z,1.09
2024-01-04T22:48:07.343Z,1.14
2024-01-04T22:50:34.376Z,1.25
2024-01-04T22:53:01.095Z,1.15
2024-01-04T22:55:27.829Z,0.96
2024-01-04T22:57:54.581Z,1.12
2024-01-04T23:00:22.720Z,1.07
2024-01-04T23:02:50.138Z,1.11
2024-01-04T23:05:16.958Z,1.02
2024-01-04T23:07:43.732Z,1.08
2024-01-04T23:10:11.524Z,0.70
2024-01-04T23:12:38.401Z,0.87
2024-01-04T23:15:05.821Z,0.87
2024-01-04T23:17:32.605Z,0.93
2024-01-04T23:19:59.590Z,0.88
2024-01-04T23:22:27.239Z,0.82
2024-01-04T23:24:54.639Z,0.73
2024-01-04T23:27:21.968Z,1.06
2024-01-04T23:29:48.720Z,0.87
2024-01-04T23:32:15.467Z,0.99
2024-01-04T23:34:42.378Z,1.09
2024-01-04T23:37:09.874Z,0.93
2024-01-04T23:39:36.608Z,1.04
2024-01-04T23:42:03.818Z,0.57
2024-01-04T23:44:30.958Z,0.29
2024-01-04T23:46:57.700Z,0.38
2024-01-04T23:49:24.538Z,0.59
2024-01-04T23:51:51.499Z,0.73
2024-01-04T23:54:18.311Z,0.57
2024-01-04T23:56:45.334Z,0.65
2024-01-04T23:59:13.578Z,0.50
